Alco, Arkansas
Current Conditions -  °F | °C
As of 4:55 PM on Friday 31 Oct 2014 (Local Time) from KFLP Reporting Station
Clear Clear  
Wind Chill: 50°   Ceiling: Unl
Heat Index: 50°   Visibility: 10mi
Dew Point: 16°   Wind: 10mph
Humidity: 26%   Direction: 350°N
Pressure: 30.31"   Gusts: 22mph
Location:  35.89°N, 92.37°W
Report Text: KFLP 312155Z AUTO 35009G19KT 10SM CLR 10/M09 A3031 RMK AO1
Loading
Personal Weather Stations






























Interactive Weather Map
Tropical Storm Tracking
New forecast layout! Learn more

10-Day Weather Forecast

Advertisements
Track Severe Weather on mobile